createdAt,value
2018-08-07T00:00:27.080Z,1006.58
2018-08-07T00:01:27.071Z,1006.62
2018-08-07T00:02:27.380Z,1006.60
2018-08-07T00:03:27.049Z,1006.60
2018-08-07T00:04:27.024Z,1006.60
2018-08-07T00:05:27.429Z,1006.60
2018-08-07T00:06:27.024Z,1006.59
2018-08-07T00:07:26.995Z,1006.58
2018-08-07T00:08:27.141Z,1006.56
2018-08-07T00:09:27.631Z,1006.57
2018-08-07T00:10:26.969Z,1006.57
2018-08-07T00:11:27.053Z,1006.54
2018-08-07T00:12:27.235Z,1006.56
2018-08-07T00:13:26.939Z,1006.54
2018-08-07T00:14:26.970Z,1006.56
2018-08-07T00:15:26.902Z,1006.52
2018-08-07T00:16:26.900Z,1006.52
2018-08-07T00:17:26.879Z,1006.50
2018-08-07T00:18:27.001Z,1006.53
2018-08-07T00:19:27.155Z,1006.49
2018-08-07T00:20:26.892Z,1006.48
2018-08-07T00:21:26.846Z,1006.47
2018-08-07T00:22:26.821Z,1006.41
2018-08-07T00:23:26.870Z,1006.43
2018-08-07T00:24:26.874Z,1006.46
2018-08-07T00:25:26.899Z,1006.38
2018-08-07T00:26:27.132Z,1006.40
2018-08-07T00:27:26.855Z,1006.39
2018-08-07T00:28:26.760Z,1006.39
2018-08-07T00:29:26.741Z,1006.36
2018-08-07T00:30:27.032Z,1006.35
2018-08-07T00:31:26.717Z,1006.34
2018-08-07T00:32:26.760Z,1006.31
2018-08-07T00:33:26.997Z,1006.33
2018-08-07T00:34:26.727Z,1006.29
2018-08-07T00:35:26.675Z,1006.29
2018-08-07T00:36:26.769Z,1006.27
2018-08-07T00:37:26.657Z,1006.27
2018-08-07T00:38:26.678Z,1006.26
2018-08-07T00:39:26.670Z,1006.25
2018-08-07T00:41:26.608Z,1006.27
2018-08-07T00:43:26.568Z,1006.29
2018-08-07T00:44:26.703Z,1006.26
2018-08-07T00:47:26.827Z,1006.25
2018-08-07T00:48:26.513Z,1006.25
2018-08-07T00:49:26.524Z,1006.26
2018-08-07T00:50:26.539Z,1006.25
2018-08-07T00:51:26.495Z,1006.23
2018-08-07T00:52:26.458Z,1006.24
2018-08-07T00:53:26.502Z,1006.24
2018-08-07T00:54:26.740Z,1006.22
2018-08-07T00:55:26.422Z,1006.24
2018-08-07T00:56:26.457Z,1006.24
2018-08-07T00:57:26.507Z,1006.19
2018-08-07T00:58:26.387Z,1006.22
2018-08-07T00:59:26.374Z,1006.16
2018-08-07T01:00:26.358Z,1006.18
2018-08-07T01:01:26.655Z,1006.17
2018-08-07T01:02:26.392Z,1006.15
2018-08-07T01:03:26.376Z,1006.15
2018-08-07T01:04:26.322Z,1006.16
2018-08-07T01:05:26.305Z,1006.19
2018-08-07T01:07:26.577Z,1006.16
2018-08-07T01:08:26.316Z,1006.14
2018-08-07T01:09:26.255Z,1006.13
2018-08-07T01:10:26.241Z,1006.16
2018-08-07T01:11:26.251Z,1006.11
2018-08-07T01:12:26.224Z,1006.11
2018-08-07T01:13:26.888Z,1006.09
2018-08-07T01:14:26.342Z,1006.13
2018-08-07T01:15:26.279Z,1006.03
2018-08-07T01:16:26.163Z,1006.07
2018-08-07T01:17:26.158Z,1006.09
2018-08-07T01:18:26.140Z,1006.03
2018-08-07T01:19:26.436Z,1006.03
2018-08-07T01:20:26.173Z,1006.05
2018-08-07T01:21:26.107Z,1006.08
2018-08-07T01:23:26.076Z,1006.02
2018-08-07T01:24:26.071Z,1006.03
2018-08-07T01:25:26.356Z,1006.01
2018-08-07T01:26:26.101Z,1006.01
2018-08-07T01:27:26.047Z,1006.02
2018-08-07T01:29:26.014Z,1005.99
2018-08-07T01:30:25.998Z,1005.99
2018-08-07T01:31:26.334Z,1005.96
2018-08-07T01:33:25.975Z,1005.98
2018-08-07T01:34:25.946Z,1005.97
2018-08-07T01:35:25.933Z,1005.97
2018-08-07T01:36:25.922Z,1005.92
2018-08-07T01:37:26.231Z,1005.96
2018-08-07T01:38:25.989Z,1005.94
2018-08-07T01:39:25.890Z,1005.94
2018-08-07T01:41:25.870Z,1005.95
2018-08-07T01:42:25.858Z,1005.89
2018-08-07T01:43:26.129Z,1005.90
2018-08-07T01:44:25.883Z,1005.88
2018-08-07T01:45:25.805Z,1005.86
2018-08-07T01:46:25.792Z,1005.87
2018-08-07T01:47:25.835Z,1005.86
2018-08-07T01:48:25.768Z,1005.86
2018-08-07T01:49:25.855Z,1005.89
2018-08-07T01:50:26.101Z,1005.87
2018-08-07T01:52:25.731Z,1005.85
2018-08-07T01:53:25.718Z,1005.81
2018-08-07T01:54:25.705Z,1005.86
2018-08-07T01:55:25.689Z,1005.83
2018-08-07T01:56:25.720Z,1005.85
2018-08-07T01:58:26.088Z,1005.81
2018-08-07T01:59:25.877Z,1005.84
2018-08-07T02:00:25.689Z,1005.80
2018-08-07T02:01:25.725Z,1005.81
2018-08-07T02:02:25.646Z,1005.81
2018-08-07T02:03:25.885Z,1005.81
2018-08-07T02:04:25.570Z,1005.78
2018-08-07T02:05:25.935Z,1005.77
2018-08-07T02:06:25.640Z,1005.78
2018-08-07T02:07:25.606Z,1005.79
2018-08-07T02:08:25.568Z,1005.78
2018-08-07T02:09:25.510Z,1005.79
2018-08-07T02:11:25.884Z,1005.77
2018-08-07T02:12:25.465Z,1005.79
2018-08-07T02:13:25.463Z,1005.78
2018-08-07T02:14:25.520Z,1005.74
2018-08-07T02:15:25.435Z,1005.73
2018-08-07T02:16:25.422Z,1005.77
2018-08-07T02:17:25.413Z,1005.72
2018-08-07T02:18:26.533Z,1005.75
2018-08-07T02:20:25.421Z,1005.77
2018-08-07T02:21:25.354Z,1005.74
2018-08-07T02:22:25.437Z,1005.73
2018-08-07T02:23:25.436Z,1005.74
2018-08-07T02:24:25.324Z,1005.67
2018-08-07T02:25:25.608Z,1005.68
2018-08-07T02:26:25.336Z,1005.69
2018-08-07T02:27:25.282Z,1005.73
2018-08-07T02:28:25.263Z,1005.67
2018-08-07T02:29:25.649Z,1005.68
2018-08-07T02:30:25.240Z,1005.63
2018-08-07T02:31:25.247Z,1005.64
2018-08-07T02:32:25.567Z,1005.59
2018-08-07T02:33:25.196Z,1005.64
2018-08-07T02:34:25.205Z,1005.62
2018-08-07T02:35:25.177Z,1005.62
2018-08-07T02:36:25.167Z,1005.63
2018-08-07T02:37:25.152Z,1005.58
2018-08-07T02:38:25.495Z,1005.60
2018-08-07T02:39:25.127Z,1005.58
2018-08-07T02:40:25.231Z,1005.56
2018-08-07T02:41:25.098Z,1005.56
2018-08-07T02:42:25.099Z,1005.55
2018-08-07T02:43:25.123Z,1005.60
2018-08-07T02:44:25.361Z,1005.57
2018-08-07T02:45:25.047Z,1005.52
2018-08-07T02:46:25.033Z,1005.55
2018-08-07T02:47:25.020Z,1005.53
2018-08-07T02:48:25.105Z,1005.53
2018-08-07T02:49:25.357Z,1005.55
2018-08-07T02:50:25.287Z,1005.50
2018-08-07T02:51:24.974Z,1005.51
2018-08-07T02:52:24.980Z,1005.54
2018-08-07T02:53:24.939Z,1005.52
2018-08-07T02:54:24.928Z,1005.47
2018-08-07T02:55:24.970Z,1005.50
2018-08-07T02:56:25.199Z,1005.48
2018-08-07T02:57:24.903Z,1005.47
2018-08-07T02:58:24.875Z,1005.46
2018-08-07T02:59:24.966Z,1005.48
2018-08-07T03:00:24.880Z,1005.47
2018-08-07T03:01:24.886Z,1005.47
2018-08-07T03:02:25.244Z,1005.44
2018-08-07T03:03:24.981Z,1005.43
2018-08-07T03:04:24.797Z,1005.44
2018-08-07T03:05:24.788Z,1005.44
2018-08-07T03:06:24.770Z,1005.42
2018-08-07T03:07:24.909Z,1005.42
2018-08-07T03:08:25.044Z,1005.44
2018-08-07T03:09:24.741Z,1005.44
2018-08-07T03:10:24.720Z,1005.44
2018-08-07T03:11:24.710Z,1005.45
2018-08-07T03:12:24.692Z,1005.44
2018-08-07T03:13:24.829Z,1005.41
2018-08-07T03:14:25.009Z,1005.45
2018-08-07T03:15:24.652Z,1005.40
2018-08-07T03:16:24.641Z,1005.44
2018-08-07T03:17:24.634Z,1005.40
2018-08-07T03:18:24.739Z,1005.44
2018-08-07T03:19:24.659Z,1005.44
2018-08-07T03:20:24.593Z,1005.39
2018-08-07T03:21:24.985Z,1005.45
2018-08-07T03:22:24.561Z,1005.41
2018-08-07T03:23:24.556Z,1005.39
2018-08-07T03:24:24.531Z,1005.38
2018-08-07T03:25:24.604Z,1005.40
2018-08-07T03:27:24.490Z,1005.41
2018-08-07T03:28:24.785Z,1005.40
2018-08-07T03:29:24.468Z,1005.38
2018-08-07T03:30:24.458Z,1005.39
2018-08-07T03:31:24.496Z,1005.40
2018-08-07T03:32:24.455Z,1005.43
2018-08-07T03:33:24.514Z,1005.40
2018-08-07T03:34:24.405Z,1005.39
2018-08-07T03:35:24.839Z,1005.43
2018-08-07T03:36:24.377Z,1005.39
2018-08-07T03:37:24.408Z,1005.42
2018-08-07T03:38:24.444Z,1005.41
2018-08-07T03:39:24.339Z,1005.42
2018-08-07T03:40:24.418Z,1005.42
2018-08-07T03:41:24.305Z,1005.40
2018-08-07T03:42:24.633Z,1005.44
2018-08-07T03:43:24.330Z,1005.44
2018-08-07T03:44:24.280Z,1005.44
2018-08-07T03:45:25.025Z,1005.41
2018-08-07T03:46:25.548Z,1005.42
2018-08-07T03:47:24.420Z,1005.44
2018-08-07T03:48:24.462Z,1005.46
2018-08-07T03:49:24.762Z,1005.46
2018-08-07T03:50:24.323Z,1005.45
2018-08-07T03:52:24.547Z,1005.48
2018-08-07T03:53:25.120Z,1005.46
2018-08-07T03:54:24.271Z,1005.46
2018-08-07T03:55:24.520Z,1005.44
2018-08-07T03:57:24.139Z,1005.47
2018-08-07T03:58:24.078Z,1005.48
2018-08-07T04:00:24.057Z,1005.48
2018-08-07T04:01:24.094Z,1005.50
2018-08-07T04:03:24.417Z,1005.45
2018-08-07T04:04:24.040Z,1005.47
2018-08-07T04:05:23.996Z,1005.46
2018-08-07T04:06:25.487Z,1005.48
2018-08-07T04:08:24.044Z,1005.43
2018-08-07T04:09:24.235Z,1005.45
2018-08-07T04:10:23.924Z,1005.42
2018-08-07T04:11:23.960Z,1005.44
2018-08-07T04:12:23.890Z,1005.42
2018-08-07T04:13:23.949Z,1005.47
2018-08-07T04:14:23.866Z,1005.44
2018-08-07T04:15:24.270Z,1005.45
2018-08-07T04:17:23.871Z,1005.39
2018-08-07T04:18:23.811Z,1005.43
2018-08-07T04:19:23.845Z,1005.45
2018-08-07T04:20:23.786Z,1005.43
2018-08-07T04:21:24.179Z,1005.43
2018-08-07T04:22:23.755Z,1005.44
2018-08-07T04:23:23.804Z,1005.43
2018-08-07T04:24:23.740Z,1005.40
2018-08-07T04:25:23.774Z,1005.39
2018-08-07T04:26:23.716Z,1005.41
2018-08-07T04:27:23.994Z,1005.39
2018-08-07T04:28:23.681Z,1005.40
2018-08-07T04:29:23.671Z,1005.42
2018-08-07T04:30:23.654Z,1005.40
2018-08-07T04:31:23.692Z,1005.40
2018-08-07T04:32:23.623Z,1005.41
2018-08-07T04:33:23.617Z,1005.39
2018-08-07T04:34:23.659Z,1005.41
2018-08-07T04:35:23.586Z,1005.39
2018-08-07T04:36:23.571Z,1005.38
2018-08-07T04:37:23.609Z,1005.40
2018-08-07T04:38:23.558Z,1005.39
2018-08-07T04:39:23.828Z,1005.39
2018-08-07T04:40:23.521Z,1005.43
2018-08-07T04:41:23.512Z,1005.38
2018-08-07T04:42:23.489Z,1005.39
2018-08-07T04:43:23.530Z,1005.42
2018-08-07T04:44:23.520Z,1005.43
2018-08-07T04:45:23.933Z,1005.44
2018-08-07T04:46:23.453Z,1005.45
2018-08-07T04:47:23.481Z,1005.43
2018-08-07T04:48:23.503Z,1005.43
2018-08-07T04:49:23.497Z,1005.47
2018-08-07T04:50:23.724Z,1005.47
2018-08-07T04:51:23.715Z,1005.44
2018-08-07T04:52:23.666Z,1005.43
2018-08-07T04:53:23.349Z,1005.42
2018-08-07T04:54:23.422Z,1005.41
2018-08-07T04:55:23.485Z,1005.43
2018-08-07T04:56:23.350Z,1005.45
2018-08-07T04:57:23.304Z,1005.46
2018-08-07T04:58:23.327Z,1005.45
2018-08-07T04:59:23.619Z,1005.50
2018-08-07T05:00:23.569Z,1005.49
2018-08-07T05:01:23.301Z,1005.49
2018-08-07T05:02:23.285Z,1005.48
2018-08-07T05:03:23.257Z,1005.46
2018-08-07T05:04:23.214Z,1005.46
2018-08-07T05:05:23.293Z,1005.46
2018-08-07T05:06:23.521Z,1005.47
2018-08-07T05:07:23.297Z,1005.47
2018-08-07T05:08:23.147Z,1005.46
2018-08-07T05:09:23.234Z,1005.46
2018-08-07T05:10:23.197Z,1005.46
2018-08-07T05:11:23.366Z,1005.51
2018-08-07T05:12:23.130Z,1005.46
2018-08-07T05:13:23.641Z,1005.44
2018-08-07T05:14:23.075Z,1005.47
2018-08-07T05:15:23.152Z,1005.47
2018-08-07T05:16:23.046Z,1005.46
2018-08-07T05:17:23.033Z,1005.49
2018-08-07T05:18:23.639Z,1005.49
2018-08-07T05:19:23.393Z,1005.46
2018-08-07T05:20:23.347Z,1005.48
2018-08-07T05:21:23.241Z,1005.48
2018-08-07T05:22:23.127Z,1005.48
2018-08-07T05:23:23.434Z,1005.49
2018-08-07T05:24:23.033Z,1005.50
2018-08-07T05:25:23.016Z,1005.48
2018-08-07T05:26:22.921Z,1005.53
2018-08-07T05:27:23.216Z,1005.48
2018-08-07T05:28:22.897Z,1005.51
2018-08-07T05:29:22.899Z,1005.49
2018-08-07T05:30:22.925Z,1005.53
2018-08-07T05:32:22.841Z,1005.52
2018-08-07T05:33:23.124Z,1005.49
2018-08-07T05:34:22.822Z,1005.53
2018-08-07T05:35:22.805Z,1005.53
2018-08-07T05:36:22.906Z,1005.52
2018-08-07T05:37:22.834Z,1005.53
2018-08-07T05:38:22.769Z,1005.50
2018-08-07T05:39:23.048Z,1005.50
2018-08-07T05:41:22.744Z,1005.50
2018-08-07T05:42:22.786Z,1005.53
2018-08-07T05:43:22.847Z,1005.50
2018-08-07T05:44:22.788Z,1005.50
2018-08-07T05:45:22.985Z,1005.49
2018-08-07T05:46:22.968Z,1005.51
2018-08-07T05:47:22.650Z,1005.54
2018-08-07T05:48:22.654Z,1005.53
2018-08-07T05:49:22.891Z,1005.52
2018-08-07T05:50:22.751Z,1005.50
2018-08-07T05:51:22.989Z,1005.52
2018-08-07T05:52:22.597Z,1005.51
2018-08-07T05:54:23.028Z,1005.55
2018-08-07T05:56:22.542Z,1005.50
2018-08-07T05:57:22.830Z,1005.50
2018-08-07T05:58:22.518Z,1005.47
2018-08-07T05:59:22.507Z,1005.48
2018-08-07T06:00:22.499Z,1005.51
2018-08-07T06:01:22.730Z,1005.50
2018-08-07T06:03:22.768Z,1005.49
2018-08-07T06:04:22.497Z,1005.49
2018-08-07T06:05:27.361Z,1005.45
2018-08-07T06:06:22.820Z,1005.46
2018-08-07T06:07:22.461Z,1005.49
2018-08-07T06:08:22.410Z,1005.49
2018-08-07T06:09:22.764Z,1005.50
2018-08-07T06:11:22.374Z,1005.46
2018-08-07T06:12:22.398Z,1005.46
2018-08-07T06:13:22.394Z,1005.44
2018-08-07T06:14:22.325Z,1005.46
2018-08-07T06:15:22.927Z,1005.42
2018-08-07T06:16:23.535Z,1005.44
2018-08-07T06:17:22.437Z,1005.43
2018-08-07T06:18:22.290Z,1005.44
2018-08-07T06:19:22.324Z,1005.45
2018-08-07T06:20:22.262Z,1005.45
2018-08-07T06:21:22.251Z,1005.48
2018-08-07T06:22:22.616Z,1005.45
2018-08-07T06:23:24.801Z,1005.48
2018-08-07T06:24:22.222Z,1005.46
2018-08-07T06:25:22.269Z,1005.45
2018-08-07T06:26:22.235Z,1005.44
2018-08-07T06:27:22.191Z,1005.46
2018-08-07T06:28:22.595Z,1005.48
2018-08-07T06:30:22.217Z,1005.48
2018-08-07T06:31:22.320Z,1005.51
2018-08-07T06:32:22.129Z,1005.54
2018-08-07T06:33:22.255Z,1005.53
2018-08-07T06:34:22.097Z,1005.51
2018-08-07T06:35:22.111Z,1005.55
2018-08-07T06:36:22.087Z,1005.57
2018-08-07T06:37:22.135Z,1005.55
2018-08-07T06:38:22.114Z,1005.54
2018-08-07T06:40:22.330Z,1005.60
2018-08-07T06:41:22.040Z,1005.51
2018-08-07T06:43:22.050Z,1005.48
2018-08-07T06:44:22.000Z,1005.47
2018-08-07T06:45:21.978Z,1005.48
2018-08-07T06:46:22.310Z,1005.48
2018-08-07T06:47:21.951Z,1005.48
2018-08-07T06:49:21.979Z,1005.52
2018-08-07T06:50:21.920Z,1005.48
2018-08-07T06:51:21.916Z,1005.46
2018-08-07T06:52:22.560Z,1005.49
2018-08-07T06:53:22.283Z,1005.45
2018-08-07T06:54:21.875Z,1005.40
2018-08-07T06:55:21.916Z,1005.43
2018-08-07T06:56:21.852Z,1005.37
2018-08-07T06:57:21.845Z,1005.40
2018-08-07T06:58:22.133Z,1005.42
2018-08-07T06:59:21.837Z,1005.43
2018-08-07T07:01:21.952Z,1005.39
2018-08-07T07:02:21.796Z,1005.42
2018-08-07T07:03:21.813Z,1005.42
2018-08-07T07:04:21.944Z,1005.42
2018-08-07T07:05:22.078Z,1005.42
2018-08-07T07:06:21.811Z,1005.42
2018-08-07T07:08:21.799Z,1005.40
2018-08-07T07:09:21.733Z,1005.41
2018-08-07T07:10:21.720Z,1005.41
2018-08-07T07:11:22.013Z,1005.40
2018-08-07T07:12:21.712Z,1005.42
2018-08-07T07:13:21.739Z,1005.41
2018-08-07T07:14:21.833Z,1005.42
2018-08-07T07:15:21.668Z,1005.40
2018-08-07T07:16:21.652Z,1005.38
2018-08-07T07:17:21.939Z,1005.38
2018-08-07T07:18:21.631Z,1005.37
2018-08-07T07:20:21.859Z,1005.36
2018-08-07T07:21:21.607Z,1005.36
2018-08-07T07:22:21.994Z,1005.38
2018-08-07T07:23:21.878Z,1005.37
2018-08-07T07:24:21.576Z,1005.41
2018-08-07T07:25:21.568Z,1005.37
2018-08-07T07:27:21.867Z,1005.42
2018-08-07T07:28:30.190Z,1005.44
2018-08-07T07:29:21.994Z,1005.44
2018-08-07T07:30:21.547Z,1005.47
2018-08-07T07:31:21.525Z,1005.46
2018-08-07T07:33:21.554Z,1005.47
2018-08-07T07:34:21.541Z,1005.45
2018-08-07T07:35:21.854Z,1005.43
2018-08-07T07:36:21.514Z,1005.43
2018-08-07T07:37:21.467Z,1005.41
2018-08-07T07:38:21.520Z,1005.41
2018-08-07T07:40:21.868Z,1005.40
2018-08-07T07:42:21.712Z,1005.36
2018-08-07T07:43:21.415Z,1005.35
2018-08-07T07:44:21.451Z,1005.36
2018-08-07T07:45:21.585Z,1005.37
2018-08-07T07:46:21.541Z,1005.32
2018-08-07T07:47:21.375Z,1005.30
2018-08-07T07:48:21.671Z,1005.35
2018-08-07T07:51:21.519Z,1005.34
2018-08-07T07:52:21.846Z,1005.30
2018-08-07T07:53:21.384Z,1005.32
2018-08-07T07:56:21.485Z,1005.32
2018-08-07T07:59:21.266Z,1005.33
2018-08-07T08:00:21.435Z,1005.39
2018-08-07T08:01:21.773Z,1005.34
2018-08-07T08:03:21.347Z,1005.34
2018-08-07T08:04:21.238Z,1005.36
2018-08-07T08:05:21.335Z,1005.36
2018-08-07T08:06:22.070Z,1005.37
2018-08-07T08:07:21.313Z,1005.35
2018-08-07T08:09:21.262Z,1005.36
2018-08-07T08:10:21.246Z,1005.37
2018-08-07T08:12:21.225Z,1005.36
2018-08-07T08:13:21.182Z,1005.36
2018-08-07T08:14:21.527Z,1005.38
2018-08-07T08:15:21.327Z,1005.31
2018-08-07T08:16:21.252Z,1005.34
2018-08-07T08:17:21.166Z,1005.37
2018-08-07T08:19:21.275Z,1005.38
2018-08-07T08:20:23.081Z,1005.40
2018-08-07T08:21:21.184Z,1005.38
2018-08-07T08:22:21.308Z,1005.38
2018-08-07T08:23:21.225Z,1005.40
2018-08-07T08:24:21.119Z,1005.42
2018-08-07T08:25:21.108Z,1005.41
2018-08-07T08:27:21.207Z,1005.45
2018-08-07T08:28:21.129Z,1005.48
2018-08-07T08:29:21.307Z,1005.47
2018-08-07T08:30:21.140Z,1005.44
2018-08-07T08:31:21.827Z,1005.63
2018-08-07T08:32:21.388Z,1005.60
2018-08-07T08:33:21.144Z,1005.59
2018-08-07T08:34:21.215Z,1005.64
2018-08-07T08:35:21.212Z,1005.64
2018-08-07T08:36:21.503Z,1008.13
2018-08-07T08:37:21.395Z,1011.58
2018-08-07T08:38:21.744Z,1011.52
2018-08-07T08:39:21.368Z,1011.00
2018-08-07T08:40:21.051Z,1011.48
2018-08-07T08:41:24.681Z,1011.48
2018-08-07T08:42:21.044Z,1011.70
2018-08-07T08:43:21.051Z,1011.65
2018-08-07T08:44:21.350Z,1011.25
2018-08-07T08:45:21.133Z,1011.33
2018-08-07T08:47:21.071Z,1011.16
2018-08-07T08:48:21.596Z,1010.53
2018-08-07T08:49:21.125Z,1010.08
2018-08-07T08:50:22.021Z,1009.95
2018-08-07T08:51:21.897Z,1009.79
2018-08-07T08:52:21.087Z,1009.67
2018-08-07T08:53:21.112Z,1009.54
2018-08-07T08:54:21.079Z,1009.31
2018-08-07T08:55:21.055Z,1008.99
2018-08-07T08:56:21.307Z,1008.71
2018-08-07T08:58:21.005Z,1008.67
2018-08-07T08:59:20.999Z,1008.43
2018-08-07T09:00:21.012Z,1008.12
2018-08-07T09:01:20.999Z,1007.91
2018-08-07T09:02:21.308Z,1007.80
2018-08-07T09:03:21.443Z,1007.75
2018-08-07T09:04:21.003Z,1007.55
2018-08-07T09:05:21.004Z,1007.39
2018-08-07T09:06:20.997Z,1007.34
2018-08-07T09:07:20.989Z,1007.32
2018-08-07T09:08:21.296Z,1007.18
2018-08-07T09:09:21.065Z,1006.97
2018-08-07T09:10:21.576Z,1006.84
2018-08-07T09:11:21.092Z,1006.81
2018-08-07T09:12:21.119Z,1006.72
2018-08-07T09:13:20.987Z,1006.72
2018-08-07T09:14:21.288Z,1006.79
2018-08-07T09:15:21.049Z,1006.72
2018-08-07T09:16:20.979Z,1006.71
2018-08-07T09:17:21.089Z,1006.76
2018-08-07T09:18:20.996Z,1006.72
2018-08-07T09:19:21.020Z,1006.61
2018-08-07T09:20:21.314Z,1006.60
2018-08-07T09:21:21.381Z,1006.61
2018-08-07T09:22:20.988Z,1006.60
2018-08-07T09:23:21.018Z,1006.60
2018-08-07T09:24:21.886Z,1006.59
2018-08-07T09:25:21.051Z,1006.62
2018-08-07T09:26:21.283Z,1006.61
2018-08-07T09:27:21.061Z,1006.64
2018-08-07T09:28:20.986Z,1006.62
2018-08-07T09:29:21.045Z,1006.59
2018-08-07T09:30:20.993Z,1006.56
2018-08-07T09:31:20.994Z,1006.55
2018-08-07T09:32:21.281Z,1006.47
2018-08-07T09:33:21.034Z,1006.46
2018-08-07T09:34:20.989Z,1006.39
2018-08-07T09:35:20.987Z,1006.39
2018-08-07T09:36:21.043Z,1006.44
2018-08-07T09:37:21.050Z,1006.49
2018-08-07T09:38:21.288Z,1006.47
2018-08-07T09:39:21.148Z,1006.50
2018-08-07T09:40:21.102Z,1006.56
2018-08-07T09:41:20.988Z,1006.49
2018-08-07T09:42:20.996Z,1006.45
2018-08-07T09:44:21.437Z,1006.42
2018-08-07T09:45:21.048Z,1006.42
2018-08-07T09:46:21.060Z,1006.46
2018-08-07T09:49:21.024Z,1006.50
2018-08-07T09:51:21.070Z,1006.42
2018-08-07T09:52:21.028Z,1006.43
2018-08-07T09:53:21.181Z,1006.36
2018-08-07T09:54:21.030Z,1006.38
2018-08-07T09:55:21.019Z,1006.38
2018-08-07T09:56:21.374Z,1006.39
2018-08-07T09:57:21.072Z,1006.41
2018-08-07T09:58:21.033Z,1006.40
2018-08-07T09:59:21.028Z,1006.35
2018-08-07T10:00:23.047Z,1006.22
2018-08-07T10:01:21.034Z,1006.29
2018-08-07T10:02:21.337Z,1006.29
2018-08-07T10:03:21.093Z,1006.23
2018-08-07T10:04:21.049Z,1006.14
2018-08-07T10:05:21.377Z,1006.04
2018-08-07T10:06:21.176Z,1006.13
2018-08-07T10:07:21.081Z,1006.18
2018-08-07T10:08:21.376Z,1006.19
2018-08-07T10:09:21.102Z,1006.35
2018-08-07T10:10:22.001Z,1006.42
2018-08-07T10:11:21.156Z,1006.37
2018-08-07T10:12:21.067Z,1006.28
2018-08-07T10:13:21.068Z,1006.22
2018-08-07T10:14:21.473Z,1006.26
2018-08-07T10:15:21.146Z,1006.32
2018-08-07T10:16:21.082Z,1006.34
2018-08-07T10:17:21.244Z,1006.32
2018-08-07T10:20:21.390Z,1006.20
2018-08-07T10:22:21.162Z,1006.15
2018-08-07T10:23:21.418Z,1006.18
2018-08-07T10:24:21.128Z,1006.14
2018-08-07T10:25:21.151Z,1006.13
2018-08-07T10:26:21.429Z,1006.12
2018-08-07T10:27:21.169Z,1006.04
2018-08-07T10:28:21.239Z,1005.99
2018-08-07T10:29:21.136Z,1005.94
2018-08-07T10:30:21.161Z,1005.91
2018-08-07T10:31:21.166Z,1005.89
2018-08-07T10:32:21.486Z,1005.84
2018-08-07T10:33:21.197Z,1005.81
2018-08-07T10:34:21.203Z,1005.81
2018-08-07T10:35:21.160Z,1005.81
2018-08-07T10:36:21.463Z,1005.80
2018-08-07T10:37:21.182Z,1005.73
2018-08-07T10:38:21.474Z,1005.74
2018-08-07T10:39:21.248Z,1005.68
2018-08-07T10:40:21.240Z,1005.66
2018-08-07T10:41:22.104Z,1005.59
2018-08-07T10:42:21.207Z,1005.60
2018-08-07T10:46:21.582Z,1005.52
2018-08-07T10:47:21.241Z,1005.51
2018-08-07T10:48:21.260Z,1005.45
2018-08-07T10:49:21.232Z,1005.45
2018-08-07T10:50:22.078Z,1005.39
2018-08-07T10:51:27.992Z,1005.41
2018-08-07T10:52:21.366Z,1005.36
2018-08-07T10:53:21.253Z,1005.32
2018-08-07T10:54:21.266Z,1005.33
2018-08-07T10:56:21.269Z,1005.38
2018-08-07T10:57:21.710Z,1005.36
2018-08-07T10:58:21.361Z,1005.42
2018-08-07T11:00:29.157Z,1005.33
2018-08-07T11:01:21.323Z,1005.43
2018-08-07T11:02:21.299Z,1005.52
2018-08-07T11:03:21.657Z,1005.40
2018-08-07T11:04:21.405Z,1005.38
2018-08-07T11:05:21.336Z,1005.33
2018-08-07T11:06:22.100Z,1005.25
2018-08-07T11:07:21.428Z,1005.14
2018-08-07T11:08:21.605Z,1005.04
2018-08-07T11:09:22.110Z,1004.99
2018-08-07T11:11:21.506Z,1004.93
2018-08-07T11:12:21.389Z,1004.85
2018-08-07T11:13:21.374Z,1004.76
2018-08-07T11:14:21.376Z,1004.65
2018-08-07T11:16:21.726Z,1004.69
2018-08-07T11:17:21.444Z,1004.64
2018-08-07T11:18:21.394Z,1004.62
2018-08-07T11:19:21.401Z,1004.67
2018-08-07T11:20:21.419Z,1004.64
2018-08-07T11:22:21.774Z,1004.56
2018-08-07T11:24:21.581Z,1004.58
2018-08-07T11:25:21.497Z,1004.62
2018-08-07T11:26:21.490Z,1004.63
2018-08-07T11:27:21.454Z,1004.57
2018-08-07T11:29:21.485Z,1004.56
2018-08-07T11:30:21.489Z,1004.56
2018-08-07T11:31:21.471Z,1004.54
2018-08-07T11:33:21.499Z,1004.64
2018-08-07T11:34:22.119Z,1004.60
2018-08-07T11:35:21.525Z,1004.19
2018-08-07T11:36:21.644Z,1003.94
2018-08-07T11:37:21.516Z,1003.93
2018-08-07T11:38:21.571Z,1003.98
2018-08-07T11:39:21.523Z,1004.15
2018-08-07T11:40:21.873Z,1004.56
2018-08-07T11:41:21.544Z,1004.50
2018-08-07T11:42:21.545Z,1004.49
2018-08-07T11:43:21.549Z,1004.46
2018-08-07T11:44:21.605Z,1004.55
2018-08-07T11:45:21.550Z,1004.50
2018-08-07T11:47:21.666Z,1004.52
2018-08-07T11:49:21.620Z,1004.51
2018-08-07T11:50:21.714Z,1004.45
2018-08-07T11:51:21.660Z,1004.44
2018-08-07T11:52:22.609Z,1004.41
2018-08-07T11:53:22.056Z,1004.35
2018-08-07T11:56:21.647Z,1004.34
2018-08-07T11:57:21.626Z,1004.34
2018-08-07T11:58:23.310Z,1004.00
2018-08-07T11:59:21.612Z,1004.29
2018-08-07T12:00:21.802Z,1004.29
2018-08-07T12:01:21.722Z,1004.33
2018-08-07T12:02:21.671Z,1004.34
2018-08-07T12:03:22.071Z,1004.31
2018-08-07T12:04:21.987Z,1004.26
2018-08-07T12:05:21.746Z,1004.27
2018-08-07T12:06:21.758Z,1004.28
2018-08-07T12:07:21.660Z,1003.67
2018-08-07T12:08:21.686Z,1004.05
2018-08-07T12:10:21.745Z,1004.15
2018-08-07T12:11:22.748Z,1004.18
2018-08-07T12:12:21.899Z,1003.85
2018-08-07T12:13:21.744Z,1003.53
2018-08-07T12:14:21.709Z,1003.52
2018-08-07T12:15:21.709Z,1003.54
2018-08-07T12:16:21.809Z,1003.49
2018-08-07T12:17:22.055Z,1003.45
2018-08-07T12:18:21.745Z,1003.54
2018-08-07T12:19:21.720Z,1004.14
2018-08-07T12:20:21.724Z,1004.18
2018-08-07T12:21:21.729Z,1003.51
2018-08-07T12:22:21.792Z,1003.49
2018-08-07T12:23:22.035Z,1003.51
2018-08-07T12:24:21.783Z,1003.73
2018-08-07T12:25:21.748Z,1004.10
2018-08-07T12:26:21.752Z,1004.13
2018-08-07T12:27:21.749Z,1004.06
2018-08-07T12:28:23.456Z,1003.93
2018-08-07T12:29:22.185Z,1003.94
2018-08-07T12:30:21.766Z,1004.01
2018-08-07T12:31:21.754Z,1003.91
2018-08-07T12:32:21.991Z,1003.95
2018-08-07T12:33:21.874Z,1003.96
2018-08-07T12:34:21.970Z,1003.93
2018-08-07T12:35:22.076Z,1003.94
2018-08-07T12:36:21.876Z,1003.84
2018-08-07T12:37:21.984Z,1003.70
2018-08-07T12:38:22.300Z,1003.73
2018-08-07T12:39:21.859Z,1003.95
2018-08-07T12:41:23.475Z,1003.80
2018-08-07T12:42:21.846Z,1003.97
2018-08-07T12:43:21.890Z,1003.86
2018-08-07T12:44:21.805Z,1003.81
2018-08-07T12:45:21.807Z,1003.78
2018-08-07T12:46:21.897Z,1003.80
2018-08-07T12:47:22.222Z,1003.79
2018-08-07T12:48:21.808Z,1003.68
2018-08-07T12:49:21.855Z,1003.78
2018-08-07T12:50:21.843Z,1003.79
2018-08-07T12:51:21.825Z,1003.79
2018-08-07T12:52:21.883Z,1003.83
2018-08-07T12:53:22.213Z,1003.67
2018-08-07T12:54:21.842Z,1003.69
2018-08-07T12:56:21.914Z,1003.65
2018-08-07T12:57:21.885Z,1003.69
2018-08-07T12:58:21.891Z,1003.66
2018-08-07T12:59:22.404Z,1003.57
2018-08-07T13:00:21.865Z,1003.73
2018-08-07T13:01:21.894Z,1003.65
2018-08-07T13:02:21.860Z,1003.75
2018-08-07T13:04:21.952Z,1003.64
2018-08-07T13:05:22.166Z,1003.68
2018-08-07T13:06:22.742Z,1003.69
2018-08-07T13:07:21.909Z,1003.63
2018-08-07T13:08:21.937Z,1003.60
2018-08-07T13:09:21.895Z,1003.60
2018-08-07T13:10:21.935Z,1003.54
2018-08-07T13:11:22.196Z,1003.59
2018-08-07T13:12:21.906Z,1003.53
2018-08-07T13:13:21.915Z,1003.45
2018-08-07T13:14:21.912Z,1003.25
2018-08-07T13:15:22.165Z,1003.47
2018-08-07T13:18:22.266Z,1003.49
2018-08-07T13:19:21.936Z,1003.30
2018-08-07T13:20:21.921Z,1003.22
2018-08-07T13:22:22.098Z,1003.43
2018-08-07T13:23:21.923Z,1003.45
2018-08-07T13:24:22.229Z,1003.49